sensor_id;sensor_type;location;lat;lon;timestamp;P1;durP1;ratioP1;P2;durP2;ratioP2
43628;SDS011;56545;48.224;11.678;2023-02-12T00:00:49;27.70;;;18.00;;
43628;SDS011;56545;48.224;11.678;2023-02-12T00:03:15;26.90;;;18.35;;
43628;SDS011;56545;48.224;11.678;2023-02-12T00:05:41;26.67;;;18.02;;
43628;SDS011;56545;48.224;11.678;2023-02-12T00:08:08;27.15;;;18.05;;
43628;SDS011;56545;48.224;11.678;2023-02-12T00:10:38;27.80;;;18.92;;
43628;SDS011;56545;48.224;11.678;2023-02-12T00:13:06;27.75;;;18.30;;
43628;SDS011;56545;48.224;11.678;2023-02-12T00:15:41;26.70;;;18.67;;
43628;SDS011;56545;48.224;11.678;2023-02-12T00:18:08;26.48;;;18.65;;
43628;SDS011;56545;48.224;11.678;2023-02-12T00:20:35;26.90;;;18.60;;
43628;SDS011;56545;48.224;11.678;2023-02-12T00:23:02;29.65;;;18.58;;
43628;SDS011;56545;48.224;11.678;2023-02-12T00:25:28;25.27;;;17.45;;
43628;SDS011;56545;48.224;11.678;2023-02-12T00:27:54;24.85;;;17.90;;
43628;SDS011;56545;48.224;11.678;2023-02-12T00:30:20;28.27;;;18.52;;
43628;SDS011;56545;48.224;11.678;2023-02-12T00:32:46;31.13;;;19.35;;
43628;SDS011;56545;48.224;11.678;2023-02-12T00:35:12;28.10;;;17.25;;
43628;SDS011;56545;48.224;11.678;2023-02-12T00:37:38;29.67;;;18.58;;
43628;SDS011;56545;48.224;11.678;2023-02-12T00:40:04;27.35;;;18.55;;
43628;SDS011;56545;48.224;11.678;2023-02-12T00:42:31;27.20;;;18.25;;
43628;SDS011;56545;48.224;11.678;2023-02-12T00:44:57;27.98;;;18.45;;
43628;SDS011;56545;48.224;11.678;2023-02-12T00:47:23;27.85;;;17.30;;
43628;SDS011;56545;48.224;11.678;2023-02-12T00:49:48;28.73;;;17.13;;
43628;SDS011;56545;48.224;11.678;2023-02-12T00:52:15;30.05;;;18.17;;
43628;SDS011;56545;48.224;11.678;2023-02-12T00:54:41;25.85;;;18.30;;
43628;SDS011;56545;48.224;11.678;2023-02-12T00:57:07;31.30;;;19.05;;
43628;SDS011;56545;48.224;11.678;2023-02-12T00:59:32;30.20;;;18.70;;
43628;SDS011;56545;48.224;11.678;2023-02-12T01:02:01;26.92;;;18.23;;
43628;SDS011;56545;48.224;11.678;2023-02-12T01:04:28;30.23;;;18.55;;
43628;SDS011;56545;48.224;11.678;2023-02-12T01:06:54;28.92;;;18.85;;
43628;SDS011;56545;48.224;11.678;2023-02-12T01:09:20;29.38;;;18.88;;
43628;SDS011;56545;48.224;11.678;2023-02-12T01:11:45;29.35;;;18.63;;
43628;SDS011;56545;48.224;11.678;2023-02-12T01:14:11;29.08;;;18.70;;
43628;SDS011;56545;48.224;11.678;2023-02-12T01:16:37;27.92;;;19.13;;
43628;SDS011;56545;48.224;11.678;2023-02-12T01:19:04;27.90;;;19.23;;
43628;SDS011;56545;48.224;11.678;2023-02-12T01:21:31;30.45;;;18.63;;
43628;SDS011;56545;48.224;11.678;2023-02-12T01:23:59;28.75;;;18.45;;
43628;SDS011;56545;48.224;11.678;2023-02-12T01:26:26;27.95;;;18.25;;
43628;SDS011;56545;48.224;11.678;2023-02-12T01:28:54;27.80;;;18.33;;
43628;SDS011;56545;48.224;11.678;2023-02-12T01:31:26;28.02;;;18.45;;
43628;SDS011;56545;48.224;11.678;2023-02-12T01:33:54;27.33;;;18.75;;
43628;SDS011;56545;48.224;11.678;2023-02-12T01:36:22;29.85;;;19.52;;
43628;SDS011;56545;48.224;11.678;2023-02-12T01:38:49;28.92;;;17.77;;
43628;SDS011;56545;48.224;11.678;2023-02-12T01:41:17;31.00;;;19.40;;
43628;SDS011;56545;48.224;11.678;2023-02-12T01:47:03;30.35;;;18.75;;
43628;SDS011;56545;48.224;11.678;2023-02-12T01:49:32;29.70;;;18.17;;
43628;SDS011;56545;48.224;11.678;2023-02-12T01:52:06;29.17;;;18.63;;
43628;SDS011;56545;48.224;11.678;2023-02-12T01:54:44;32.22;;;19.35;;
43628;SDS011;56545;48.224;11.678;2023-02-12T01:57:12;30.63;;;18.70;;
43628;SDS011;56545;48.224;11.678;2023-02-12T01:59:40;31.15;;;18.95;;
43628;SDS011;56545;48.224;11.678;2023-02-12T02:02:09;26.00;;;18.40;;
43628;SDS011;56545;48.224;11.678;2023-02-12T02:04:36;28.15;;;19.17;;
43628;SDS011;56545;48.224;11.678;2023-02-12T02:07:08;26.67;;;18.67;;
43628;SDS011;56545;48.224;11.678;2023-02-12T02:09:36;29.83;;;18.63;;
43628;SDS011;56545;48.224;11.678;2023-02-12T02:12:03;30.63;;;18.98;;
43628;SDS011;56545;48.224;11.678;2023-02-12T02:14:50;31.55;;;18.80;;
43628;SDS011;56545;48.224;11.678;2023-02-12T02:25:48;30.30;;;19.08;;
43628;SDS011;56545;48.224;11.678;2023-02-12T02:28:31;29.20;;;19.10;;
43628;SDS011;56545;48.224;11.678;2023-02-12T02:36:43;28.50;;;19.10;;
43628;SDS011;56545;48.224;11.678;2023-02-12T02:39:28;26.77;;;18.95;;
43628;SDS011;56545;48.224;11.678;2023-02-12T02:44:39;30.08;;;19.77;;
43628;SDS011;56545;48.224;11.678;2023-02-12T02:47:10;29.05;;;18.98;;
43628;SDS011;56545;48.224;11.678;2023-02-12T02:49:39;27.70;;;18.95;;
43628;SDS011;56545;48.224;11.678;2023-02-12T02:52:14;28.50;;;19.92;;
43628;SDS011;56545;48.224;11.678;2023-02-12T02:54:51;30.13;;;19.27;;
43628;SDS011;56545;48.224;11.678;2023-02-12T02:57:40;30.20;;;20.63;;
43628;SDS011;56545;48.224;11.678;2023-02-12T03:00:18;28.20;;;18.88;;
43628;SDS011;56545;48.224;11.678;2023-02-12T03:05:39;29.80;;;19.58;;
43628;SDS011;56545;48.224;11.678;2023-02-12T03:08:10;29.75;;;19.92;;
43628;SDS011;56545;48.224;11.678;2023-02-12T03:10:46;29.85;;;19.30;;
43628;SDS011;56545;48.224;11.678;2023-02-12T03:13:20;33.40;;;20.23;;
43628;SDS011;56545;48.224;11.678;2023-02-12T03:15:52;31.30;;;19.55;;
43628;SDS011;56545;48.224;11.678;2023-02-12T03:18:25;30.40;;;20.50;;
43628;SDS011;56545;48.224;11.678;2023-02-12T03:21:04;29.23;;;19.90;;
43628;SDS011;56545;48.224;11.678;2023-02-12T03:23:46;28.33;;;19.35;;
43628;SDS011;56545;48.224;11.678;2023-02-12T03:26:46;28.98;;;20.05;;
43628;SDS011;56545;48.224;11.678;2023-02-12T03:29:26;28.85;;;19.90;;
43628;SDS011;56545;48.224;11.678;2023-02-12T03:34:37;33.13;;;20.52;;
43628;SDS011;56545;48.224;11.678;2023-02-12T03:37:07;30.08;;;19.95;;
43628;SDS011;56545;48.224;11.678;2023-02-12T03:39:44;32.38;;;20.73;;
43628;SDS011;56545;48.224;11.678;2023-02-12T03:42:23;30.67;;;20.58;;
43628;SDS011;56545;48.224;11.678;2023-02-12T03:45:08;29.13;;;20.05;;
43628;SDS011;56545;48.224;11.678;2023-02-12T03:47:47;28.52;;;19.90;;
43628;SDS011;56545;48.224;11.678;2023-02-12T03:50:34;32.03;;;20.70;;
43628;SDS011;56545;48.224;11.678;2023-02-12T03:53:20;29.67;;;20.05;;
43628;SDS011;56545;48.224;11.678;2023-02-12T03:55:47;29.48;;;20.98;;
43628;SDS011;56545;48.224;11.678;2023-02-12T03:58:19;31.07;;;20.87;;
43628;SDS011;56545;48.224;11.678;2023-02-12T04:00:49;31.83;;;21.67;;
43628;SDS011;56545;48.224;11.678;2023-02-12T04:03:15;28.67;;;20.90;;
43628;SDS011;56545;48.224;11.678;2023-02-12T04:05:41;30.58;;;21.23;;
43628;SDS011;56545;48.224;11.678;2023-02-12T04:08:08;29.23;;;21.17;;
43628;SDS011;56545;48.224;11.678;2023-02-12T04:16:04;35.47;;;22.10;;
43628;SDS011;56545;48.224;11.678;2023-02-12T04:18:44;30.95;;;21.33;;
43628;SDS011;56545;48.224;11.678;2023-02-12T04:24:27;31.15;;;21.00;;
43628;SDS011;56545;48.224;11.678;2023-02-12T04:27:09;31.08;;;22.17;;
43628;SDS011;56545;48.224;11.678;2023-02-12T04:32:17;33.00;;;21.98;;
43628;SDS011;56545;48.224;11.678;2023-02-12T04:34:55;35.67;;;23.90;;
43628;SDS011;56545;48.224;11.678;2023-02-12T04:37:42;34.45;;;23.42;;
43628;SDS011;56545;48.224;11.678;2023-02-12T04:40:12;35.33;;;23.25;;
43628;SDS011;56545;48.224;11.678;2023-02-12T04:42:43;34.08;;;23.92;;
43628;SDS011;56545;48.224;11.678;2023-02-12T04:45:11;35.13;;;24.52;;
43628;SDS011;56545;48.224;11.678;2023-02-12T04:47:40;32.05;;;23.00;;
43628;SDS011;56545;48.224;11.678;2023-02-12T04:50:06;32.80;;;22.98;;
43628;SDS011;56545;48.224;11.678;2023-02-12T04:52:32;35.00;;;22.95;;
43628;SDS011;56545;48.224;11.678;2023-02-12T04:54:58;40.20;;;26.92;;
43628;SDS011;56545;48.224;11.678;2023-02-12T04:57:24;37.88;;;26.38;;
43628;SDS011;56545;48.224;11.678;2023-02-12T04:59:50;36.15;;;25.13;;
43628;SDS011;56545;48.224;11.678;2023-02-12T05:02:16;35.10;;;23.58;;
43628;SDS011;56545;48.224;11.678;2023-02-12T05:04:42;35.97;;;23.55;;
43628;SDS011;56545;48.224;11.678;2023-02-12T05:07:09;30.95;;;22.50;;
43628;SDS011;56545;48.224;11.678;2023-02-12T05:09:35;30.67;;;21.40;;
43628;SDS011;56545;48.224;11.678;2023-02-12T05:12:01;30.38;;;21.90;;
43628;SDS011;56545;48.224;11.678;2023-02-12T05:14:27;33.08;;;22.63;;
43628;SDS011;56545;48.224;11.678;2023-02-12T05:16:53;31.17;;;21.75;;
43628;SDS011;56545;48.224;11.678;2023-02-12T05:19:19;30.40;;;22.08;;
43628;SDS011;56545;48.224;11.678;2023-02-12T05:21:45;31.85;;;21.92;;
43628;SDS011;56545;48.224;11.678;2023-02-12T05:24:14;35.60;;;23.20;;
43628;SDS011;56545;48.224;11.678;2023-02-12T05:26:41;36.05;;;24.05;;
43628;SDS011;56545;48.224;11.678;2023-02-12T05:29:07;35.65;;;23.98;;
43628;SDS011;56545;48.224;11.678;2023-02-12T05:31:33;33.45;;;24.23;;
43628;SDS011;56545;48.224;11.678;2023-02-12T05:33:59;37.80;;;24.10;;
43628;SDS011;56545;48.224;11.678;2023-02-12T05:36:26;36.75;;;24.52;;
43628;SDS011;56545;48.224;11.678;2023-02-12T05:38:52;35.22;;;24.08;;
43628;SDS011;56545;48.224;11.678;2023-02-12T05:41:22;39.45;;;23.85;;
43628;SDS011;56545;48.224;11.678;2023-02-12T05:43:49;36.58;;;23.73;;
43628;SDS011;56545;48.224;11.678;2023-02-12T05:46:16;39.22;;;25.23;;
43628;SDS011;56545;48.224;11.678;2023-02-12T05:48:43;36.40;;;24.35;;
43628;SDS011;56545;48.224;11.678;2023-02-12T05:51:10;36.85;;;24.35;;
43628;SDS011;56545;48.224;11.678;2023-02-12T05:53:39;42.80;;;25.95;;
43628;SDS011;56545;48.224;11.678;2023-02-12T05:56:06;40.00;;;24.98;;
43628;SDS011;56545;48.224;11.678;2023-02-12T05:58:32;40.78;;;25.42;;
43628;SDS011;56545;48.224;11.678;2023-02-12T06:00:58;42.42;;;26.70;;
43628;SDS011;56545;48.224;11.678;2023-02-12T06:03:24;37.25;;;25.20;;
43628;SDS011;56545;48.224;11.678;2023-02-12T06:05:51;41.03;;;25.45;;
43628;SDS011;56545;48.224;11.678;2023-02-12T06:08:17;42.80;;;25.25;;
43628;SDS011;56545;48.224;11.678;2023-02-12T06:10:43;38.50;;;25.77;;
43628;SDS011;56545;48.224;11.678;2023-02-12T06:13:09;38.17;;;25.50;;
43628;SDS011;56545;48.224;11.678;2023-02-12T06:15:35;40.17;;;25.83;;
43628;SDS011;56545;48.224;11.678;2023-02-12T06:18:01;39.05;;;25.83;;
43628;SDS011;56545;48.224;11.678;2023-02-12T06:20:27;38.17;;;25.38;;
43628;SDS011;56545;48.224;11.678;2023-02-12T06:22:53;44.25;;;27.20;;
43628;SDS011;56545;48.224;11.678;2023-02-12T06:25:19;40.95;;;26.75;;
43628;SDS011;56545;48.224;11.678;2023-02-12T06:27:45;38.75;;;26.30;;
43628;SDS011;56545;48.224;11.678;2023-02-12T06:30:11;41.67;;;27.42;;
43628;SDS011;56545;48.224;11.678;2023-02-12T06:32:38;39.85;;;26.58;;
43628;SDS011;56545;48.224;11.678;2023-02-12T06:35:04;40.80;;;25.23;;
43628;SDS011;56545;48.224;11.678;2023-02-12T06:37:30;38.63;;;27.67;;
43628;SDS011;56545;48.224;11.678;2023-02-12T06:39:56;46.58;;;27.15;;
43628;SDS011;56545;48.224;11.678;2023-02-12T06:42:22;43.05;;;27.35;;
43628;SDS011;56545;48.224;11.678;2023-02-12T06:44:48;43.42;;;27.05;;
43628;SDS011;56545;48.224;11.678;2023-02-12T06:47:14;41.00;;;27.02;;
43628;SDS011;56545;48.224;11.678;2023-02-12T06:49:40;41.83;;;26.40;;
43628;SDS011;56545;48.224;11.678;2023-02-12T06:52:06;46.30;;;28.13;;
43628;SDS011;56545;48.224;11.678;2023-02-12T06:54:32;44.72;;;29.02;;
43628;SDS011;56545;48.224;11.678;2023-02-12T06:56:58;43.40;;;27.85;;
43628;SDS011;56545;48.224;11.678;2023-02-12T06:59:24;51.65;;;29.60;;
43628;SDS011;56545;48.224;11.678;2023-02-12T07:01:49;43.50;;;28.02;;
43628;SDS011;56545;48.224;11.678;2023-02-12T07:04:15;46.25;;;29.67;;
43628;SDS011;56545;48.224;11.678;2023-02-12T07:06:41;43.42;;;28.25;;
43628;SDS011;56545;48.224;11.678;2023-02-12T07:09:07;47.90;;;28.02;;
43628;SDS011;56545;48.224;11.678;2023-02-12T07:11:34;44.75;;;28.75;;
43628;SDS011;56545;48.224;11.678;2023-02-12T07:14:00;49.38;;;30.25;;
43628;SDS011;56545;48.224;11.678;2023-02-12T07:16:26;43.85;;;27.27;;
43628;SDS011;56545;48.224;11.678;2023-02-12T07:18:52;45.20;;;28.20;;
43628;SDS011;56545;48.224;11.678;2023-02-12T07:21:19;42.92;;;29.00;;
43628;SDS011;56545;48.224;11.678;2023-02-12T07:23:46;44.08;;;28.98;;
43628;SDS011;56545;48.224;11.678;2023-02-12T07:26:13;44.30;;;28.60;;
43628;SDS011;56545;48.224;11.678;2023-02-12T07:28:40;46.83;;;29.85;;
43628;SDS011;56545;48.224;11.678;2023-02-12T07:31:07;49.70;;;29.85;;
43628;SDS011;56545;48.224;11.678;2023-02-12T07:33:38;50.85;;;31.20;;
43628;SDS011;56545;48.224;11.678;2023-02-12T07:36:07;48.45;;;29.98;;
43628;SDS011;56545;48.224;11.678;2023-02-12T07:38:34;47.80;;;30.40;;
43628;SDS011;56545;48.224;11.678;2023-02-12T07:41:11;42.45;;;29.30;;
43628;SDS011;56545;48.224;11.678;2023-02-12T07:46:24;50.72;;;31.17;;
43628;SDS011;56545;48.224;11.678;2023-02-12T07:48:56;53.50;;;32.13;;
43628;SDS011;56545;48.224;11.678;2023-02-12T07:51:23;48.95;;;30.20;;
43628;SDS011;56545;48.224;11.678;2023-02-12T07:53:51;49.45;;;30.88;;
43628;SDS011;56545;48.224;11.678;2023-02-12T07:56:24;46.50;;;30.25;;
43628;SDS011;56545;48.224;11.678;2023-02-12T07:58:56;48.97;;;30.48;;
43628;SDS011;56545;48.224;11.678;2023-02-12T08:01:27;47.85;;;28.75;;
43628;SDS011;56545;48.224;11.678;2023-02-12T08:04:00;41.90;;;27.95;;
43628;SDS011;56545;48.224;11.678;2023-02-12T08:06:47;42.25;;;28.45;;
43628;SDS011;56545;48.224;11.678;2023-02-12T08:09:18;45.05;;;28.67;;
43628;SDS011;56545;48.224;11.678;2023-02-12T08:11:47;45.22;;;29.10;;
43628;SDS011;56545;48.224;11.678;2023-02-12T08:14:14;46.28;;;29.33;;
43628;SDS011;56545;48.224;11.678;2023-02-12T08:16:43;55.28;;;31.40;;
43628;SDS011;56545;48.224;11.678;2023-02-12T08:19:11;56.40;;;36.05;;
43628;SDS011;56545;48.224;11.678;2023-02-12T08:21:37;57.80;;;31.80;;
43628;SDS011;56545;48.224;11.678;2023-02-12T08:24:03;57.60;;;33.28;;
43628;SDS011;56545;48.224;11.678;2023-02-12T08:26:33;49.10;;;29.60;;
43628;SDS011;56545;48.224;11.678;2023-02-12T08:29:10;44.03;;;27.65;;
43628;SDS011;56545;48.224;11.678;2023-02-12T08:31:48;44.35;;;28.83;;
43628;SDS011;56545;48.224;11.678;2023-02-12T08:36:48;47.78;;;30.77;;
43628;SDS011;56545;48.224;11.678;2023-02-12T08:39:16;48.28;;;29.73;;
43628;SDS011;56545;48.224;11.678;2023-02-12T08:41:42;46.08;;;29.60;;
43628;SDS011;56545;48.224;11.678;2023-02-12T08:44:09;45.83;;;28.55;;
43628;SDS011;56545;48.224;11.678;2023-02-12T08:46:37;44.40;;;28.73;;
43628;SDS011;56545;48.224;11.678;2023-02-12T08:49:06;41.10;;;27.85;;
43628;SDS011;56545;48.224;11.678;2023-02-12T08:51:36;43.30;;;28.55;;
43628;SDS011;56545;48.224;11.678;2023-02-12T08:54:05;61.58;;;38.85;;
43628;SDS011;56545;48.224;11.678;2023-02-12T08:56:34;45.10;;;29.20;;
43628;SDS011;56545;48.224;11.678;2023-02-12T08:59:01;41.63;;;27.50;;
43628;SDS011;56545;48.224;11.678;2023-02-12T09:01:29;42.15;;;28.48;;
43628;SDS011;56545;48.224;11.678;2023-02-12T09:03:56;37.08;;;26.10;;
43628;SDS011;56545;48.224;11.678;2023-02-12T09:06:23;36.05;;;24.63;;
43628;SDS011;56545;48.224;11.678;2023-02-12T09:08:50;40.33;;;26.38;;
43628;SDS011;56545;48.224;11.678;2023-02-12T09:11:18;36.70;;;25.45;;
43628;SDS011;56545;48.224;11.678;2023-02-12T09:13:48;33.83;;;23.42;;
43628;SDS011;56545;48.224;11.678;2023-02-12T09:16:14;32.22;;;23.00;;
43628;SDS011;56545;48.224;11.678;2023-02-12T09:18:40;32.92;;;22.17;;
43628;SDS011;56545;48.224;11.678;2023-02-12T09:21:08;31.73;;;22.08;;
43628;SDS011;56545;48.224;11.678;2023-02-12T09:23:38;30.02;;;21.60;;
43628;SDS011;56545;48.224;11.678;2023-02-12T09:26:05;25.92;;;19.23;;
43628;SDS011;56545;48.224;11.678;2023-02-12T09:28:32;29.80;;;20.80;;
43628;SDS011;56545;48.224;11.678;2023-02-12T09:30:58;29.20;;;21.35;;
43628;SDS011;56545;48.224;11.678;2023-02-12T09:33:29;36.92;;;25.60;;
43628;SDS011;56545;48.224;11.678;2023-02-12T09:35:59;34.65;;;24.05;;
43628;SDS011;56545;48.224;11.678;2023-02-12T09:38:27;42.13;;;27.50;;
43628;SDS011;56545;48.224;11.678;2023-02-12T09:46:54;36.35;;;24.92;;
43628;SDS011;56545;48.224;11.678;2023-02-12T09:52:29;35.05;;;24.15;;
43628;SDS011;56545;48.224;11.678;2023-02-12T09:54:55;37.28;;;23.90;;
43628;SDS011;56545;48.224;11.678;2023-02-12T10:02:38;33.15;;;22.77;;
43628;SDS011;56545;48.224;11.678;2023-02-12T10:05:05;33.78;;;23.52;;
43628;SDS011;56545;48.224;11.678;2023-02-12T10:07:52;31.38;;;21.88;;
43628;SDS011;56545;48.224;11.678;2023-02-12T10:10:46;30.20;;;20.88;;
43628;SDS011;56545;48.224;11.678;2023-02-12T10:13:35;26.05;;;19.60;;
43628;SDS011;56545;48.224;11.678;2023-02-12T10:16:28;29.90;;;20.50;;
43628;SDS011;56545;48.224;11.678;2023-02-12T10:25:08;16.13;;;11.35;;
43628;SDS011;56545;48.224;11.678;2023-02-12T10:27:52;16.60;;;11.07;;
43628;SDS011;56545;48.224;11.678;2023-02-12T10:30:24;18.02;;;12.10;;
43628;SDS011;56545;48.224;11.678;2023-02-12T10:33:02;19.52;;;14.05;;
43628;SDS011;56545;48.224;11.678;2023-02-12T10:35:31;18.33;;;13.45;;
43628;SDS011;56545;48.224;11.678;2023-02-12T10:38:03;19.17;;;13.27;;
43628;SDS011;56545;48.224;11.678;2023-02-12T10:41:06;17.10;;;12.05;;
43628;SDS011;56545;48.224;11.678;2023-02-12T10:43:34;15.60;;;10.43;;
43628;SDS011;56545;48.224;11.678;2023-02-12T10:46:00;17.40;;;11.20;;
43628;SDS011;56545;48.224;11.678;2023-02-12T10:48:29;15.27;;;10.77;;
43628;SDS011;56545;48.224;11.678;2023-02-12T10:51:08;15.73;;;10.88;;
43628;SDS011;56545;48.224;11.678;2023-02-12T10:53:51;14.80;;;10.77;;
43628;SDS011;56545;48.224;11.678;2023-02-12T10:56:17;13.43;;;8.82;;
43628;SDS011;56545;48.224;11.678;2023-02-12T11:01:19;9.60;;;6.50;;
43628;SDS011;56545;48.224;11.678;2023-02-12T11:03:56;9.73;;;6.10;;
43628;SDS011;56545;48.224;11.678;2023-02-12T11:06:24;7.28;;;4.72;;
43628;SDS011;56545;48.224;11.678;2023-02-12T11:08:52;7.80;;;4.80;;
43628;SDS011;56545;48.224;11.678;2023-02-12T11:11:30;8.07;;;5.45;;
43628;SDS011;56545;48.224;11.678;2023-02-12T11:14:03;8.98;;;6.07;;
43628;SDS011;56545;48.224;11.678;2023-02-12T11:16:46;9.15;;;6.82;;
43628;SDS011;56545;48.224;11.678;2023-02-12T11:19:23;8.80;;;6.15;;
43628;SDS011;56545;48.224;11.678;2023-02-12T11:21:52;7.45;;;4.82;;
43628;SDS011;56545;48.224;11.678;2023-02-12T11:24:31;8.23;;;5.70;;
43628;SDS011;56545;48.224;11.678;2023-02-12T11:27:10;7.40;;;5.20;;
43628;SDS011;56545;48.224;11.678;2023-02-12T11:29:39;7.43;;;4.88;;
43628;SDS011;56545;48.224;11.678;2023-02-12T11:32:15;7.07;;;5.03;;
43628;SDS011;56545;48.224;11.678;2023-02-12T11:34:43;6.93;;;5.03;;
43628;SDS011;56545;48.224;11.678;2023-02-12T11:37:27;6.00;;;4.35;;
43628;SDS011;56545;48.224;11.678;2023-02-12T11:39:53;6.60;;;5.00;;
43628;SDS011;56545;48.224;11.678;2023-02-12T11:42:20;7.90;;;5.45;;
43628;SDS011;56545;48.224;11.678;2023-02-12T11:47:25;10.40;;;8.77;;
43628;SDS011;56545;48.224;11.678;2023-02-12T11:50:08;24.75;;;22.15;;
43628;SDS011;56545;48.224;11.678;2023-02-12T11:52:49;15.68;;;12.40;;
43628;SDS011;56545;48.224;11.678;2023-02-12T11:55:21;9.90;;;8.35;;
43628;SDS011;56545;48.224;11.678;2023-02-12T11:57:50;10.57;;;8.05;;
43628;SDS011;56545;48.224;11.678;2023-02-12T12:00:20;10.98;;;8.13;;
43628;SDS011;56545;48.224;11.678;2023-02-12T12:02:57;12.52;;;8.50;;
43628;SDS011;56545;48.224;11.678;2023-02-12T12:05:34;12.63;;;9.02;;
43628;SDS011;56545;48.224;11.678;2023-02-12T12:08:04;12.85;;;8.70;;
43628;SDS011;56545;48.224;11.678;2023-02-12T12:10:38;13.00;;;9.77;;
43628;SDS011;56545;48.224;11.678;2023-02-12T12:13:16;13.57;;;9.95;;
43628;SDS011;56545;48.224;11.678;2023-02-12T12:15:49;15.32;;;10.80;;
43628;SDS011;56545;48.224;11.678;2023-02-12T12:19:14;14.00;;;10.00;;
43628;SDS011;56545;48.224;11.678;2023-02-12T12:22:04;13.57;;;10.27;;
43628;SDS011;56545;48.224;11.678;2023-02-12T12:25:06;15.15;;;10.45;;
43628;SDS011;56545;48.224;11.678;2023-02-12T12:27:53;13.75;;;9.93;;
43628;SDS011;56545;48.224;11.678;2023-02-12T12:30:36;13.20;;;9.35;;
43628;SDS011;56545;48.224;11.678;2023-02-12T12:41:22;9.93;;;7.55;;
43628;SDS011;56545;48.224;11.678;2023-02-12T12:49:33;10.03;;;7.33;;
43628;SDS011;56545;48.224;11.678;2023-02-12T13:00:06;9.77;;;7.40;;
43628;SDS011;56545;48.224;11.678;2023-02-12T13:11:16;11.38;;;8.30;;
43628;SDS011;56545;48.224;11.678;2023-02-12T13:14:07;11.68;;;8.52;;
43628;SDS011;56545;48.224;11.678;2023-02-12T13:17:04;10.80;;;7.90;;
43628;SDS011;56545;48.224;11.678;2023-02-12T13:22:11;11.02;;;7.40;;
43628;SDS011;56545;48.224;11.678;2023-02-12T13:24:50;10.90;;;8.70;;
43628;SDS011;56545;48.224;11.678;2023-02-12T13:27:23;12.20;;;9.75;;
43628;SDS011;56545;48.224;11.678;2023-02-12T13:29:53;13.35;;;11.13;;
43628;SDS011;56545;48.224;11.678;2023-02-12T13:32:31;14.32;;;12.63;;
43628;SDS011;56545;48.224;11.678;2023-02-12T13:35:01;15.00;;;13.35;;
43628;SDS011;56545;48.224;11.678;2023-02-12T13:39:57;16.02;;;14.32;;
43628;SDS011;56545;48.224;11.678;2023-02-12T13:42:37;16.23;;;13.88;;
43628;SDS011;56545;48.224;11.678;2023-02-12T14:01:59;16.50;;;13.63;;
43628;SDS011;56545;48.224;11.678;2023-02-12T14:04:32;14.23;;;12.07;;
43628;SDS011;56545;48.224;11.678;2023-02-12T14:14:50;13.65;;;11.65;;
43628;SDS011;56545;48.224;11.678;2023-02-12T14:23:20;12.77;;;9.63;;
43628;SDS011;56545;48.224;11.678;2023-02-12T14:25:55;11.48;;;9.20;;
43628;SDS011;56545;48.224;11.678;2023-02-12T14:28:30;10.88;;;8.32;;
43628;SDS011;56545;48.224;11.678;2023-02-12T14:31:19;10.93;;;8.40;;
43628;SDS011;56545;48.224;11.678;2023-02-12T14:34:19;11.45;;;7.93;;
43628;SDS011;56545;48.224;11.678;2023-02-12T14:36:43;10.32;;;7.75;;
43628;SDS011;56545;48.224;11.678;2023-02-12T14:41:46;12.02;;;8.68;;
43628;SDS011;56545;48.224;11.678;2023-02-12T14:46:48;13.50;;;9.07;;
43628;SDS011;56545;48.224;11.678;2023-02-12T14:49:26;14.35;;;10.40;;
43628;SDS011;56545;48.224;11.678;2023-02-12T14:52:02;14.35;;;10.93;;
43628;SDS011;56545;48.224;11.678;2023-02-12T14:54:43;14.63;;;10.65;;
43628;SDS011;56545;48.224;11.678;2023-02-12T14:57:25;12.73;;;9.48;;
43628;SDS011;56545;48.224;11.678;2023-02-12T15:02:50;14.40;;;10.23;;
43628;SDS011;56545;48.224;11.678;2023-02-12T15:05:23;14.18;;;10.70;;
43628;SDS011;56545;48.224;11.678;2023-02-12T15:16:03;14.18;;;10.13;;
43628;SDS011;56545;48.224;11.678;2023-02-12T15:21:27;15.82;;;10.68;;
43628;SDS011;56545;48.224;11.678;2023-02-12T15:26:35;18.23;;;13.32;;
43628;SDS011;56545;48.224;11.678;2023-02-12T15:29:06;19.77;;;13.85;;
43628;SDS011;56545;48.224;11.678;2023-02-12T15:31:40;19.23;;;13.80;;
43628;SDS011;56545;48.224;11.678;2023-02-12T15:34:06;21.40;;;15.30;;
43628;SDS011;56545;48.224;11.678;2023-02-12T15:36:43;33.22;;;22.55;;
43628;SDS011;56545;48.224;11.678;2023-02-12T15:39:15;23.38;;;17.00;;
43628;SDS011;56545;48.224;11.678;2023-02-12T15:41:45;24.48;;;16.98;;
43628;SDS011;56545;48.224;11.678;2023-02-12T15:44:27;25.45;;;17.17;;
43628;SDS011;56545;48.224;11.678;2023-02-12T15:47:14;23.13;;;15.68;;
43628;SDS011;56545;48.224;11.678;2023-02-12T15:52:18;23.65;;;15.07;;
43628;SDS011;56545;48.224;11.678;2023-02-12T15:54:48;22.85;;;15.35;;
43628;SDS011;56545;48.224;11.678;2023-02-12T15:57:21;23.02;;;15.95;;
43628;SDS011;56545;48.224;11.678;2023-02-12T15:59:49;26.55;;;15.85;;
43628;SDS011;56545;48.224;11.678;2023-02-12T16:02:17;23.90;;;15.98;;
43628;SDS011;56545;48.224;11.678;2023-02-12T16:04:46;25.52;;;15.85;;
43628;SDS011;56545;48.224;11.678;2023-02-12T16:07:12;24.83;;;16.40;;
43628;SDS011;56545;48.224;11.678;2023-02-12T16:09:39;24.15;;;15.35;;
43628;SDS011;56545;48.224;11.678;2023-02-12T16:12:06;25.40;;;16.30;;
43628;SDS011;56545;48.224;11.678;2023-02-12T16:14:51;25.13;;;16.08;;
43628;SDS011;56545;48.224;11.678;2023-02-12T16:22:24;25.55;;;15.90;;
43628;SDS011;56545;48.224;11.678;2023-02-12T16:25:17;25.17;;;16.08;;
43628;SDS011;56545;48.224;11.678;2023-02-12T16:28:04;25.40;;;16.98;;
43628;SDS011;56545;48.224;11.678;2023-02-12T16:33:03;26.33;;;17.38;;
43628;SDS011;56545;48.224;11.678;2023-02-12T16:35:33;25.98;;;17.10;;
43628;SDS011;56545;48.224;11.678;2023-02-12T16:38:29;27.20;;;17.85;;
43628;SDS011;56545;48.224;11.678;2023-02-12T16:41:23;26.20;;;17.00;;
43628;SDS011;56545;48.224;11.678;2023-02-12T16:46:26;26.38;;;17.05;;
43628;SDS011;56545;48.224;11.678;2023-02-12T16:48:57;25.65;;;17.08;;
43628;SDS011;56545;48.224;11.678;2023-02-12T16:51:28;26.42;;;17.50;;
43628;SDS011;56545;48.224;11.678;2023-02-12T16:53:56;27.33;;;18.17;;
43628;SDS011;56545;48.224;11.678;2023-02-12T16:56:28;28.40;;;17.55;;
43628;SDS011;56545;48.224;11.678;2023-02-12T16:58:59;55.03;;;35.30;;
43628;SDS011;56545;48.224;11.678;2023-02-12T17:01:33;29.48;;;18.00;;
43628;SDS011;56545;48.224;11.678;2023-02-12T17:04:00;28.23;;;18.40;;
43628;SDS011;56545;48.224;11.678;2023-02-12T17:06:30;26.98;;;17.35;;
43628;SDS011;56545;48.224;11.678;2023-02-12T17:08:57;28.58;;;18.80;;
43628;SDS011;56545;48.224;11.678;2023-02-12T17:11:23;29.65;;;18.02;;
43628;SDS011;56545;48.224;11.678;2023-02-12T17:13:51;27.67;;;18.40;;
43628;SDS011;56545;48.224;11.678;2023-02-12T17:16:18;32.00;;;19.90;;
43628;SDS011;56545;48.224;11.678;2023-02-12T17:18:45;32.00;;;19.45;;
43628;SDS011;56545;48.224;11.678;2023-02-12T17:21:14;30.30;;;20.20;;
43628;SDS011;56545;48.224;11.678;2023-02-12T17:23:50;31.98;;;19.77;;